Terminal Aerodrome Forecast
Issued by NWS Chicago, IL

Home | Current Version | Previous Version | Graphics & Text | Print | Product List | Glossary On
Versions: 1 2 3 4 5 6 7 8 9 10 11 12 13 14 15 16 17 18 19 20 21 22 23 24 25 26 27 28 29
000
FTUS43 KLOT 211934 AAA
TAFRFD
TAF AMD
KRFD 211934Z 2120/2218 17006KT P6SM VCTS SCT020 SCT050 BKN150CB
     FM212100 18006KT P6SM BKN100
      TEMPO 2200/2202 2SM -TSRA BKN040CB
     FM220200 16006KT 6SM -SHRA VCTS BKN050 BKN100CB
      TEMPO 2205/2208 3SM TSRA BKN035CB
     FM221000 18005KT P6SM BKN025
     FM221500 24008KT P6SM BKN035=

USA.gov is the U.S. government's official web portal to all federal, state and local government web resources and services.